Time;durP1;ratioP1;P1;durP2;ratioP2;P2;SDS_P1;SDS_P2;PMS_P1;PMS_P2;Temp;Humidity;BMP_temperature;BMP_pressure;BME280_temperature;BME280_humidity;BME280_pressure;Samples;Min_cycle;Max_cycle;Signal;HPM_P1;HPM_P2
2021/10/05 00:02:10;;;;;;;2.00;1.40;;;15.00;71.10;;;;;;5113775;28;20959;-71
2021/10/05 00:04:37;;;;;;;2.63;1.70;;;15.00;70.90;;;;;;5114123;28;20443;-71
2021/10/05 00:07:04;;;;;;;2.33;1.73;;;15.00;70.90;;;;;;5113884;28;20466;-71
2021/10/05 00:09:31;;;;;;;1.70;1.60;;;15.00;71.00;;;;;;5113675;28;20984;-71
2021/10/05 00:11:58;;;;;;;4.13;1.97;;;15.00;71.10;;;;;;5113883;28;20474;-71
2021/10/05 00:14:26;;;;;;;4.53;2.00;;;15.00;71.20;;;;;;5117374;28;20442;-71
2021/10/05 00:16:53;;;;;;;2.63;1.33;;;15.00;71.30;;;;;;5120848;27;20434;-71
2021/10/05 00:19:20;;;;;;;2.40;1.73;;;15.00;71.40;;;;;;5120733;27;20486;-71
2021/10/05 00:21:47;;;;;;;3.00;1.90;;;15.00;71.40;;;;;;5120774;27;20438;-71
2021/10/05 00:24:13;;;;;;;2.50;1.80;;;15.00;71.50;;;;;;5120441;27;20450;-71
2021/10/05 00:26:40;;;;;;;5.50;1.97;;;15.00;71.40;;;;;;5120356;27;20443;-71
2021/10/05 00:29:07;;;;;;;1.93;1.50;;;15.00;71.20;;;;;;5120638;27;20466;-71
2021/10/05 00:31:35;;;;;;;3.13;1.93;;;15.00;71.20;;;;;;5120857;27;20475;-71
2021/10/05 00:34:02;;;;;;;3.10;1.80;;;15.00;71.10;;;;;;5120625;27;20925;-71
2021/10/05 00:36:29;;;;;;;2.73;1.87;;;15.00;71.20;;;;;;5121118;27;20450;-71
2021/10/05 00:38:56;;;;;;;5.47;2.50;;;15.00;71.30;;;;;;5120929;27;20458;-71
2021/10/05 00:41:23;;;;;;;3.07;2.27;;;14.90;71.20;;;;;;5121042;27;20485;-71
2021/10/05 00:43:50;;;;;;;3.03;2.50;;;14.90;71.20;;;;;;5120851;27;20447;-71
2021/10/05 00:46:21;;;;;;;3.20;2.30;;;14.90;71.10;;;;;;5120684;27;20443;-71
2021/10/05 00:48:49;;;;;;;5.47;2.67;;;14.90;70.90;;;;;;5120457;27;20998;-71
2021/10/05 00:51:16;;;;;;;4.40;2.60;;;14.90;70.70;;;;;;5120699;27;20465;-71
2021/10/05 00:53:43;;;;;;;3.10;2.00;;;14.90;70.70;;;;;;5120811;27;20442;-71
2021/10/05 00:56:10;;;;;;;6.67;3.80;;;14.90;70.60;;;;;;5120542;27;20443;-71
2021/10/05 00:58:38;;;;;;;2.83;2.10;;;14.80;70.70;;;;;;5120303;27;20470;-71
2021/10/05 01:01:05;;;;;;;4.37;2.83;;;14.80;70.80;;;;;;5120530;27;20435;-71
2021/10/05 01:03:32;;;;;;;4.23;3.20;;;14.80;71.00;;;;;;5120476;27;20446;-71
2021/10/05 01:06:00;;;;;;;4.53;2.70;;;14.80;71.20;;;;;;5120148;27;20467;-71
2021/10/05 01:08:27;;;;;;;3.80;2.40;;;14.70;71.30;;;;;;5120218;27;20959;-71
2021/10/05 01:10:54;;;;;;;6.93;2.67;;;14.70;71.80;;;;;;5120269;27;20474;-71
2021/10/05 01:13:21;;;;;;;4.07;2.87;;;14.70;71.70;;;;;;5120459;27;20446;-71
2021/10/05 01:15:47;;;;;;;3.60;2.83;;;14.70;71.90;;;;;;5120493;27;20438;-71
2021/10/05 01:18:14;;;;;;;4.10;3.30;;;14.70;71.90;;;;;;5120172;27;20466;-71
2021/10/05 01:20:59;;;;;;;5.90;3.30;;;14.70;71.90;;;;;;5119915;27;20939;-71
2021/10/05 01:23:27;;;;;;;3.40;3.00;;;14.70;71.70;;;;;;5120108;27;20442;-71
2021/10/05 01:25:54;;;;;;;4.40;2.70;;;14.60;71.50;;;;;;5118076;27;20473;-71
2021/10/05 01:28:23;;;;;;;6.00;3.23;;;14.60;71.30;;;;;;5116804;28;20465;-71
2021/10/05 01:30:50;;;;;;;4.30;3.43;;;14.60;71.20;;;;;;5116819;28;20487;-71
2021/10/05 01:33:18;;;;;;;4.67;3.27;;;14.60;71.20;;;;;;5116856;28;20446;-71
2021/10/05 01:35:45;;;;;;;4.30;2.90;;;14.50;71.20;;;;;;5116507;28;20446;-71
2021/10/05 01:38:13;;;;;;;4.20;3.17;;;14.50;71.20;;;;;;5116395;28;20980;-71
2021/10/05 01:40:40;;;;;;;8.50;3.33;;;14.50;71.20;;;;;;5116713;27;20444;-71
2021/10/05 01:43:07;;;;;;;3.97;2.77;;;14.50;71.20;;;;;;5116647;28;20447;-71
2021/10/05 01:45:36;;;;;;;3.40;3.00;;;14.40;71.20;;;;;;5116897;28;20435;-71
2021/10/05 01:48:04;;;;;;;2.50;2.13;;;14.40;71.10;;;;;;5116505;28;20831;-71
2021/10/05 01:50:30;;;;;;;3.47;2.80;;;14.40;71.10;;;;;;5116107;28;20933;-71
2021/10/05 01:52:57;;;;;;;3.50;3.03;;;14.40;71.10;;;;;;5116565;28;20840;-71
2021/10/05 01:55:25;;;;;;;5.30;2.97;;;14.30;71.00;;;;;;5116076;27;20450;-71
2021/10/05 01:57:52;;;;;;;3.33;2.30;;;14.30;71.00;;;;;;5116035;28;20928;-71
2021/10/05 02:00:20;;;;;;;4.27;2.70;;;14.30;71.00;;;;;;5116318;28;20451;-71
2021/10/05 02:02:48;;;;;;;3.53;2.63;;;14.20;70.90;;;;;;5116557;28;20447;-71
2021/10/05 02:05:15;;;;;;;3.70;2.60;;;14.20;71.20;;;;;;5116281;28;20534;-71
2021/10/05 02:07:42;;;;;;;2.70;2.50;;;14.20;71.40;;;;;;5116052;28;20821;-71
2021/10/05 02:10:10;;;;;;;3.47;3.17;;;14.20;71.50;;;;;;5116161;28;20455;-71
2021/10/05 02:12:38;;;;;;;5.67;3.23;;;14.20;71.60;;;;;;5116031;28;20492;-71
2021/10/05 02:15:06;;;;;;;7.57;2.40;;;14.10;71.40;;;;;;5116081;28;20447;-71
2021/10/05 02:17:33;;;;;;;3.17;2.87;;;14.10;71.50;;;;;;5115960;28;20455;-71
2021/10/05 02:19:59;;;;;;;6.00;2.50;;;14.10;71.60;;;;;;5115963;28;20470;-71
2021/10/05 02:22:26;;;;;;;2.80;2.40;;;14.00;71.60;;;;;;5116215;28;20466;-71
2021/10/05 02:24:53;;;;;;;3.93;2.67;;;14.00;71.70;;;;;;5115823;28;20450;-71
2021/10/05 02:27:21;;;;;;;3.20;2.80;;;14.00;71.90;;;;;;5115765;28;20450;-71
2021/10/05 02:29:49;;;;;;;4.40;2.93;;;13.90;71.80;;;;;;5115807;28;20515;-71
2021/10/05 02:32:17;;;;;;;5.40;3.07;;;13.90;72.00;;;;;;5115651;28;20474;-71
2021/10/05 02:34:43;;;;;;;12.40;3.67;;;13.90;72.20;;;;;;5115324;28;20438;-71
2021/10/05 02:37:11;;;;;;;5.10;3.50;;;13.90;72.40;;;;;;5114951;28;20443;-71
2021/10/05 02:39:38;;;;;;;5.50;3.40;;;13.90;72.70;;;;;;5115011;28;20447;-71
2021/10/05 02:42:05;;;;;;;4.77;3.53;;;13.80;72.90;;;;;;5116447;28;20933;-71
2021/10/05 02:44:33;;;;;;;6.03;3.43;;;13.80;73.10;;;;;;5116302;28;20447;-71
2021/10/05 02:47:01;;;;;;;6.30;3.20;;;13.80;73.50;;;;;;5115434;28;20492;-71
2021/10/05 02:49:28;;;;;;;3.63;3.00;;;13.90;73.80;;;;;;5115355;28;20494;-71
2021/10/05 02:51:55;;;;;;;4.37;3.33;;;13.90;74.10;;;;;;5116187;28;20474;-71
2021/10/05 02:54:21;;;;;;;5.30;4.00;;;13.80;74.20;;;;;;5117046;27;20455;-71
2021/10/05 02:56:48;;;;;;;4.50;3.60;;;13.80;74.50;;;;;;5115301;28;20447;-71
2021/10/05 02:59:16;;;;;;;6.60;4.10;;;13.80;74.90;;;;;;5115153;28;20494;-71
2021/10/05 03:01:43;;;;;;;4.50;3.60;;;13.90;75.40;;;;;;5114819;28;20951;-71
2021/10/05 03:04:11;;;;;;;3.57;3.27;;;13.80;75.40;;;;;;5114829;28;20936;-71
2021/10/05 03:06:38;;;;;;;5.20;3.80;;;13.80;75.80;;;;;;5115014;28;20459;-71
2021/10/05 03:09:05;;;;;;;4.63;4.23;;;13.80;76.10;;;;;;5114926;28;20463;-71
2021/10/05 03:11:32;;;;;;;3.50;2.90;;;13.80;77.20;;;;;;5115051;28;20470;-71
2021/10/05 03:13:58;;;;;;;5.60;4.03;;;13.80;76.50;;;;;;5114948;28;20936;-71
2021/10/05 03:16:25;;;;;;;5.00;3.40;;;13.80;76.40;;;;;;5114934;28;20446;-71
2021/10/05 03:18:52;;;;;;;3.60;3.27;;;13.80;76.50;;;;;;5114786;28;20492;-71
2021/10/05 03:21:20;;;;;;;6.47;4.40;;;13.80;76.50;;;;;;5114439;28;20943;-71
2021/10/05 03:23:47;;;;;;;4.80;4.33;;;13.80;76.60;;;;;;5114735;28;20454;-71
2021/10/05 03:26:14;;;;;;;5.87;4.67;;;13.80;76.90;;;;;;5114688;28;20447;-71
2021/10/05 03:28:42;;;;;;;5.63;4.60;;;13.80;77.20;;;;;;5114549;28;20467;-71
2021/10/05 03:31:11;;;;;;;5.37;4.87;;;13.80;77.40;;;;;;5114540;28;20450;-71
2021/10/05 03:33:37;;;;;;;7.30;5.90;;;13.80;77.50;;;;;;5114563;28;20786;-71
2021/10/05 03:36:05;;;;;;;5.40;5.00;;;13.80;77.70;;;;;;5114481;28;20776;-71
2021/10/05 03:38:33;;;;;;;5.90;4.60;;;13.80;77.50;;;;;;5114413;27;20545;-71
2021/10/05 03:41:00;;;;;;;7.43;6.73;;;13.80;77.40;;;;;;5114436;28;20439;-71
2021/10/05 03:43:27;;;;;;;5.37;4.97;;;13.80;77.50;;;;;;5114422;28;20445;-71
2021/10/05 03:45:55;;;;;;;5.63;5.13;;;13.80;77.80;;;;;;5114633;28;20447;-71
2021/10/05 03:48:21;;;;;;;6.47;5.37;;;13.80;78.00;;;;;;5114135;28;20462;-71
2021/10/05 03:50:49;;;;;;;6.97;5.73;;;13.70;78.00;;;;;;5114274;28;20443;-71
2021/10/05 03:53:17;;;;;;;6.63;5.63;;;13.70;78.20;;;;;;5114171;28;20474;-71
2021/10/05 03:55:46;;;;;;;5.50;5.00;;;13.70;78.50;;;;;;5114202;28;20482;-71
2021/10/05 03:58:13;;;;;;;6.50;5.37;;;13.70;78.60;;;;;;5114238;27;20469;-71
2021/10/05 04:00:40;;;;;;;5.03;4.53;;;13.70;78.80;;;;;;5113822;28;20820;-71
2021/10/05 04:03:07;;;;;;;5.63;5.13;;;13.60;78.80;;;;;;5114459;28;20447;-71
2021/10/05 04:05:33;;;;;;;5.93;5.40;;;13.70;79.00;;;;;;5113940;28;20442;-71
2021/10/05 04:08:01;;;;;;;5.50;4.97;;;13.70;79.10;;;;;;5113664;28;20449;-71
2021/10/05 04:10:28;;;;;;;4.40;4.10;;;13.70;79.10;;;;;;5113738;28;20971;-71
2021/10/05 04:12:56;;;;;;;5.10;4.10;;;13.70;79.10;;;;;;5114199;28;20509;-71
2021/10/05 04:15:23;;;;;;;4.97;4.57;;;13.70;79.10;;;;;;5114093;28;20442;-71
2021/10/05 04:17:50;;;;;;;4.60;4.27;;;13.70;79.10;;;;;;5114273;28;20454;-71
2021/10/05 04:20:16;;;;;;;4.90;4.43;;;13.70;79.10;;;;;;5113888;28;20442;-71
2021/10/05 04:22:43;;;;;;;6.93;4.80;;;13.70;79.30;;;;;;5113929;28;20809;-71
2021/10/05 04:25:11;;;;;;;5.40;4.37;;;13.70;79.30;;;;;;5113666;28;20959;-71
2021/10/05 04:27:39;;;;;;;4.63;4.30;;;13.60;79.30;;;;;;5113861;28;20445;-71
2021/10/05 04:30:10;;;;;;;7.97;4.83;;;13.70;79.40;;;;;;5113804;28;20473;-71
2021/10/05 04:32:37;;;;;;;6.13;4.20;;;13.70;79.50;;;;;;5113792;28;20467;-71
2021/10/05 04:35:05;;;;;;;4.63;4.23;;;13.70;79.60;;;;;;5113544;28;20476;-71
2021/10/05 04:37:32;;;;;;;5.90;4.20;;;13.70;79.70;;;;;;5114026;28;20439;-71
2021/10/05 04:39:59;;;;;;;4.50;4.10;;;13.60;79.70;;;;;;5113668;28;20466;-71
2021/10/05 04:42:25;;;;;;;5.57;4.53;;;13.60;79.80;;;;;;5113726;28;20435;-71
2021/10/05 04:44:52;;;;;;;4.87;4.40;;;13.60;80.00;;;;;;5113437;28;20446;-71
2021/10/05 04:47:20;;;;;;;5.23;4.80;;;13.60;80.00;;;;;;5113770;28;20438;-71
2021/10/05 04:49:47;;;;;;;6.50;4.80;;;13.60;80.00;;;;;;5113750;28;20796;-71
2021/10/05 04:52:14;;;;;;;4.80;4.37;;;13.60;79.90;;;;;;5113981;28;20467;-71
2021/10/05 04:54:40;;;;;;;6.67;4.93;;;13.60;80.00;;;;;;5113396;28;20442;-71
2021/10/05 04:57:07;;;;;;;5.20;4.70;;;13.60;79.90;;;;;;5113609;28;20443;-71
2021/10/05 04:59:34;;;;;;;5.43;4.93;;;13.60;80.00;;;;;;5113597;28;20470;-71
2021/10/05 05:02:01;;;;;;;8.20;5.70;;;13.60;80.00;;;;;;5116260;28;20442;-71
2021/10/05 05:04:29;;;;;;;5.53;5.03;;;13.60;80.00;;;;;;5117450;28;20450;-71
2021/10/05 05:06:56;;;;;;;5.30;4.90;;;13.60;80.10;;;;;;5117385;28;20528;-71
2021/10/05 05:09:23;;;;;;;4.80;4.40;;;13.60;80.10;;;;;;5117259;27;20469;-71
2021/10/05 05:11:49;;;;;;;5.60;5.10;;;13.60;80.00;;;;;;5117178;28;20481;-71
2021/10/05 05:14:18;;;;;;;6.50;5.87;;;13.50;79.90;;;;;;5116901;28;20932;-71
2021/10/05 05:16:45;;;;;;;5.83;5.37;;;13.60;80.20;;;;;;5117147;28;20478;-71
2021/10/05 05:19:11;;;;;;;5.67;5.17;;;13.50;80.10;;;;;;5117037;28;20470;-71
2021/10/05 05:21:39;;;;;;;5.77;5.23;;;13.50;80.10;;;;;;5116772;28;20438;-71
2021/10/05 05:24:06;;;;;;;6.93;6.17;;;13.60;80.30;;;;;;5117015;28;20443;-71
2021/10/05 05:26:33;;;;;;;5.77;5.23;;;13.60;80.20;;;;;;5117018;28;20447;-71
2021/10/05 05:29:00;;;;;;;6.57;5.23;;;13.50;80.30;;;;;;5116798;28;20477;-71
2021/10/05 05:31:27;;;;;;;6.30;5.80;;;13.50;80.50;;;;;;5116875;28;20439;-71
2021/10/05 05:33:53;;;;;;;8.63;5.80;;;13.60;80.70;;;;;;5116514;28;20431;-71
2021/10/05 05:36:20;;;;;;;5.10;4.50;;;13.60;80.40;;;;;;5116803;28;20442;-71
2021/10/05 05:38:48;;;;;;;6.40;5.80;;;13.50;80.30;;;;;;5116647;28;20469;-71
2021/10/05 05:41:15;;;;;;;8.27;6.57;;;13.50;80.30;;;;;;5116409;28;20940;-71
2021/10/05 05:43:42;;;;;;;6.23;5.70;;;13.50;80.60;;;;;;5116676;28;20451;-71
2021/10/05 05:46:08;;;;;;;7.30;6.60;;;13.50;80.70;;;;;;5116604;27;20438;-71
2021/10/05 05:48:35;;;;;;;8.83;6.20;;;13.50;81.00;;;;;;5116541;28;20877;-71
2021/10/05 05:51:02;;;;;;;5.80;5.30;;;13.50;81.00;;;;;;5116587;28;20446;-71
2021/10/05 05:53:29;;;;;;;7.30;6.57;;;13.50;81.20;;;;;;5116430;28;20487;-71
2021/10/05 05:55:57;;;;;;;6.80;6.10;;;13.50;81.40;;;;;;5116777;28;20446;-71
2021/10/05 05:58:24;;;;;;;7.27;5.60;;;13.50;81.30;;;;;;5116430;28;20507;-71
2021/10/05 06:00:51;;;;;;;8.13;7.27;;;13.50;82.00;;;;;;5116066;28;20500;-71
2021/10/05 06:03:18;;;;;;;9.80;8.80;;;13.50;81.10;;;;;;5116509;28;20439;-70
2021/10/05 06:05:45;;;;;;;10.23;7.77;;;13.50;81.30;;;;;;5116202;28;20447;-72
2021/10/05 06:08:11;;;;;;;7.70;7.00;;;13.50;81.40;;;;;;5116105;28;20464;-70
2021/10/05 06:10:38;;;;;;;8.43;7.63;;;13.50;81.60;;;;;;5116124;28;20443;-71
2021/10/05 06:13:06;;;;;;;8.30;7.60;;;13.50;82.00;;;;;;5115674;28;20485;-71
2021/10/05 06:15:34;;;;;;;7.83;7.03;;;13.50;82.30;;;;;;5115965;28;20458;-71
2021/10/05 06:18:01;;;;;;;8.67;6.83;;;13.50;82.30;;;;;;5115918;28;20442;-71
2021/10/05 06:20:29;;;;;;;7.50;6.80;;;13.50;82.70;;;;;;5115973;28;20431;-71
2021/10/05 06:22:57;;;;;;;6.77;6.07;;;13.50;82.80;;;;;;5115895;27;20441;-71
2021/10/05 06:25:26;;;;;;;7.57;6.87;;;13.50;83.10;;;;;;5115832;28;20447;-71
2021/10/05 06:27:56;;;;;;;7.40;6.37;;;13.50;83.20;;;;;;5115778;28;20446;-71
2021/10/05 06:30:25;;;;;;;8.33;6.23;;;13.60;83.30;;;;;;5115742;28;20439;-71
2021/10/05 06:32:54;;;;;;;8.70;7.10;;;13.60;83.50;;;;;;5115280;28;20482;-71
2021/10/05 06:35:21;;;;;;;7.40;6.20;;;13.60;83.50;;;;;;5115670;28;20480;-71
2021/10/05 06:37:51;;;;;;;6.93;6.23;;;13.70;83.60;;;;;;5116243;28;20443;-71
2021/10/05 06:40:18;;;;;;;5.77;5.23;;;13.70;83.40;;;;;;5115642;28;20427;-71
2021/10/05 06:42:45;;;;;;;6.40;5.10;;;13.70;83.40;;;;;;5115476;28;20806;-71
2021/10/05 06:45:12;;;;;;;8.63;6.07;;;13.70;83.20;;;;;;5115801;28;20435;-71
2021/10/05 06:47:40;;;;;;;5.80;4.80;;;13.70;83.10;;;;;;5115401;28;20451;-71
2021/10/05 06:50:08;;;;;;;5.40;4.90;;;13.80;83.10;;;;;;5115243;28;20467;-71
2021/10/05 06:52:35;;;;;;;6.50;4.90;;;13.80;83.00;;;;;;5115219;28;20566;-71
2021/10/05 06:55:03;;;;;;;5.63;5.07;;;13.80;82.80;;;;;;5115499;28;20462;-71
2021/10/05 06:57:29;;;;;;;4.53;3.97;;;13.80;82.70;;;;;;5114868;28;20956;-71
2021/10/05 06:59:56;;;;;;;7.37;4.70;;;13.80;82.70;;;;;;5115187;28;20465;-71
2021/10/05 07:02:23;;;;;;;4.10;3.70;;;13.90;82.60;;;;;;5115157;28;20478;-71
2021/10/05 07:04:52;;;;;;;4.53;4.13;;;13.90;82.50;;;;;;5115052;28;20461;-71
2021/10/05 07:07:18;;;;;;;7.90;4.77;;;14.00;82.60;;;;;;5114844;28;20462;-72
2021/10/05 07:09:45;;;;;;;5.70;4.20;;;14.00;82.50;;;;;;5115316;28;20470;-71
2021/10/05 07:12:12;;;;;;;4.97;4.47;;;14.00;82.30;;;;;;5114735;28;20474;-71
2021/10/05 07:14:39;;;;;;;4.90;4.40;;;14.10;82.40;;;;;;5115071;28;20442;-71
2021/10/05 07:17:06;;;;;;;5.00;4.33;;;14.10;82.30;;;;;;5114995;28;20447;-71
2021/10/05 07:19:33;;;;;;;4.07;3.77;;;14.20;82.20;;;;;;5114816;28;20475;-71
2021/10/05 07:22:01;;;;;;;5.70;4.53;;;14.20;82.10;;;;;;5114690;28;20443;-71
2021/10/05 07:24:28;;;;;;;5.70;5.10;;;14.20;81.90;;;;;;5113806;28;20936;-71
2021/10/05 07:26:55;;;;;;;6.57;5.87;;;14.30;82.00;;;;;;5114640;28;20928;-71
2021/10/05 07:29:22;;;;;;;5.60;4.30;;;14.30;82.00;;;;;;5114697;28;20459;-71
2021/10/05 07:31:48;;;;;;;9.30;6.07;;;14.30;82.00;;;;;;5114723;28;20442;-71
2021/10/05 07:34:15;;;;;;;11.90;6.67;;;14.40;81.80;;;;;;5114143;28;21003;-71
2021/10/05 07:36:42;;;;;;;9.00;5.97;;;14.40;81.70;;;;;;5114486;28;20447;-71
2021/10/05 07:39:10;;;;;;;7.13;6.03;;;14.40;81.50;;;;;;5114138;28;20812;-71
2021/10/05 07:41:37;;;;;;;8.17;6.80;;;14.50;81.70;;;;;;5114095;28;20442;-71
2021/10/05 07:44:04;;;;;;;7.17;5.20;;;14.50;81.90;;;;;;5114362;28;20446;-71
2021/10/05 07:46:31;;;;;;;6.20;4.30;;;14.50;81.80;;;;;;5114317;28;20473;-71
2021/10/05 07:48:58;;;;;;;5.50;4.70;;;14.50;81.30;;;;;;5114253;28;20458;-71
2021/10/05 07:51:25;;;;;;;6.07;4.10;;;14.40;80.90;;;;;;5113917;28;20929;-71
2021/10/05 07:53:52;;;;;;;5.10;4.37;;;14.30;81.10;;;;;;5114918;28;20479;-71
2021/10/05 07:56:20;;;;;;;5.30;4.80;;;14.30;81.70;;;;;;5114078;28;20446;-71
2021/10/05 07:58:47;;;;;;;5.30;4.80;;;14.30;82.00;;;;;;5113943;27;20471;-71
2021/10/05 08:01:14;;;;;;;5.73;4.57;;;14.30;82.10;;;;;;5113977;28;20812;-71
2021/10/05 08:03:41;;;;;;;6.37;5.77;;;14.20;82.10;;;;;;5114000;28;20450;-71
2021/10/05 08:06:07;;;;;;;6.50;5.00;;;14.30;82.60;;;;;;5114402;28;20466;-71
2021/10/05 08:08:34;;;;;;;5.93;5.00;;;14.30;82.30;;;;;;5114057;28;20467;-71
2021/10/05 08:11:01;;;;;;;5.73;5.23;;;14.20;81.60;;;;;;5114002;28;20466;-71
2021/10/05 08:13:29;;;;;;;6.07;5.47;;;14.30;82.20;;;;;;5113850;28;20478;-71
2021/10/05 08:15:56;;;;;;;5.83;4.50;;;14.30;82.10;;;;;;5113933;28;20531;-71
2021/10/05 08:18:23;;;;;;;5.00;4.60;;;14.40;82.10;;;;;;5113854;28;20463;-70
2021/10/05 08:20:51;;;;;;;4.87;4.10;;;14.50;82.00;;;;;;5113904;28;20451;-70
2021/10/05 08:23:18;;;;;;;5.17;4.67;;;14.50;81.60;;;;;;5113846;28;20434;-70
2021/10/05 08:25:45;;;;;;;5.37;4.77;;;14.60;81.30;;;;;;5113605;28;20446;-71
2021/10/05 08:28:12;;;;;;;6.07;4.73;;;14.60;81.60;;;;;;5114083;28;20459;-70
2021/10/05 08:30:40;;;;;;;4.70;4.30;;;14.50;80.60;;;;;;5113942;28;20447;-71
2021/10/05 08:33:07;;;;;;;5.90;5.03;;;14.50;80.70;;;;;;5113925;28;20499;-70
2021/10/05 08:35:34;;;;;;;5.70;4.83;;;14.50;80.80;;;;;;5115812;28;20434;-70
2021/10/05 08:38:04;;;;;;;5.27;4.43;;;14.50;80.80;;;;;;5117913;28;20430;-70
2021/10/05 08:40:32;;;;;;;5.80;4.33;;;14.50;80.80;;;;;;5117553;28;20861;-71
2021/10/05 08:42:59;;;;;;;7.90;4.90;;;14.70;80.80;;;;;;5117923;28;20435;-70
2021/10/05 08:45:26;;;;;;;4.50;4.20;;;14.70;80.10;;;;;;5117843;28;20447;-70
2021/10/05 08:47:54;;;;;;;4.50;4.10;;;14.80;79.80;;;;;;5117393;28;20936;-70
2021/10/05 08:50:21;;;;;;;4.80;4.40;;;14.90;79.50;;;;;;5117717;28;20439;-71
2021/10/05 08:52:48;;;;;;;4.80;4.30;;;15.00;79.50;;;;;;5117559;28;20446;-71
2021/10/05 08:55:15;;;;;;;4.80;4.03;;;15.10;78.80;;;;;;5118475;28;20434;-71
2021/10/05 08:57:42;;;;;;;4.77;4.13;;;15.20;78.50;;;;;;5117569;28;20458;-71
2021/10/05 09:00:10;;;;;;;9.10;3.93;;;15.30;78.40;;;;;;5117528;28;20470;-71
2021/10/05 09:02:50;;;;;;;4.13;3.73;;;15.30;78.50;;;;;;5117504;28;20474;-71
2021/10/05 09:05:19;;;;;;;4.70;4.20;;;15.40;77.20;;;;;;5117229;28;20893;-71
2021/10/05 09:07:50;;;;;;;5.57;3.87;;;15.50;76.80;;;;;;5117380;28;20462;-71
2021/10/05 09:10:20;;;;;;;4.33;3.77;;;15.50;76.70;;;;;;5117386;28;20480;-70
2021/10/05 09:12:49;;;;;;;5.10;3.77;;;15.50;76.60;;;;;;5116896;28;20928;-70
2021/10/05 09:15:18;;;;;;;4.10;3.70;;;15.60;76.50;;;;;;5117215;28;20450;-70
2021/10/05 09:17:51;;;;;;;3.87;3.57;;;15.70;76.60;;;;;;5117103;28;20454;-70
2021/10/05 09:20:22;;;;;;;3.57;3.10;;;15.90;76.00;;;;;;5117519;28;20434;-70
2021/10/05 09:23:01;;;;;;;9.07;3.20;;;16.00;75.10;;;;;;5117089;28;20802;-70
2021/10/05 09:25:30;;;;;;;4.30;3.07;;;16.10;75.30;;;;;;5117006;28;20443;-70
2021/10/05 09:27:58;;;;;;;5.83;2.67;;;16.20;74.70;;;;;;5116682;28;20896;-70
2021/10/05 09:30:26;;;;;;;3.90;2.27;;;16.30;74.00;;;;;;5116699;28;20461;-70
2021/10/05 09:33:01;;;;;;;4.30;2.50;;;16.40;73.30;;;;;;5116843;28;20449;-71
2021/10/05 09:35:41;;;;;;;3.03;2.70;;;16.50;73.10;;;;;;5117387;28;20427;-71
2021/10/05 09:38:12;;;;;;;2.03;1.93;;;16.60;72.50;;;;;;5116713;28;20459;-70
2021/10/05 09:40:39;;;;;;;2.73;2.53;;;16.80;71.30;;;;;;5116726;28;20501;-70
2021/10/05 09:43:20;;;;;;;3.13;2.83;;;17.00;71.10;;;;;;5116467;27;20443;-70
2021/10/05 09:45:47;;;;;;;2.80;1.70;;;17.30;71.00;;;;;;5116681;28;20459;-70
2021/10/05 09:48:14;;;;;;;1.83;1.73;;;17.50;68.20;;;;;;5115850;28;20466;-70
2021/10/05 09:50:43;;;;;;;3.20;1.70;;;17.70;66.50;;;;;;5116793;28;20454;-70
2021/10/05 09:53:12;;;;;;;2.67;2.07;;;17.90;66.60;;;;;;5116429;28;20813;-70
2021/10/05 09:55:40;;;;;;;2.10;1.93;;;18.20;65.20;;;;;;5116477;28;20443;-70
2021/10/05 09:58:08;;;;;;;1.70;1.50;;;18.60;63.90;;;;;;5116361;28;20493;-70
2021/10/05 10:00:38;;;;;;;4.70;1.37;;;19.00;61.30;;;;;;5116346;28;20529;-70
2021/10/05 10:03:06;;;;;;;2.60;1.70;;;19.10;59.30;;;;;;5116577;28;20442;-70
2021/10/05 10:05:34;;;;;;;1.70;1.27;;;19.30;58.50;;;;;;5115848;28;20483;-70
2021/10/05 10:08:02;;;;;;;4.60;1.60;;;19.50;57.90;;;;;;5116142;27;20790;-70
2021/10/05 10:10:31;;;;;;;2.70;1.50;;;19.60;57.00;;;;;;5116161;28;20450;-70
2021/10/05 10:13:00;;;;;;;3.13;1.33;;;19.80;56.90;;;;;;5116058;28;20818;-70
2021/10/05 10:15:28;;;;;;;3.97;1.40;;;20.10;56.20;;;;;;5116078;28;20438;-70
2021/10/05 10:18:05;;;;;;;6.73;1.93;;;20.30;55.10;;;;;;5116281;28;20434;-71
2021/10/05 10:20:34;;;;;;;6.13;1.47;;;20.40;54.90;;;;;;5116002;28;20454;-71
2021/10/05 10:23:02;;;;;;;3.13;1.27;;;20.60;54.60;;;;;;5115580;28;20951;-71
2021/10/05 10:25:32;;;;;;;1.47;1.20;;;20.60;53.70;;;;;;5115652;28;20922;-71
2021/10/05 10:28:10;;;;;;;1.77;1.40;;;21.00;53.70;;;;;;5115791;28;20785;-71
2021/10/05 10:30:49;;;;;;;3.13;1.80;;;21.20;52.60;;;;;;5115925;28;20449;-72
2021/10/05 10:33:16;;;;;;;3.10;1.30;;;21.50;51.50;;;;;;5115795;28;20434;-71
2021/10/05 10:35:49;;;;;;;1.43;1.33;;;21.80;51.30;;;;;;5115743;28;20427;-71
2021/10/05 10:38:24;;;;;;;2.83;1.40;;;22.40;50.10;;;;;;5115612;28;20462;-71
2021/10/05 10:40:51;;;;;;;18.80;3.07;;;22.80;48.10;;;;;;5115609;28;20454;-72
2021/10/05 10:43:21;;;;;;;1.73;1.07;;;22.90;48.00;;;;;;5115526;27;20450;-72
2021/10/05 10:45:49;;;;;;;4.40;1.97;;;23.30;47.10;;;;;;5115573;28;20500;-72
2021/10/05 10:48:26;;;;;;;6.13;1.47;;;23.60;46.80;;;;;;5115367;27;20459;-72
2021/10/05 10:50:53;;;;;;;1.73;1.30;;;23.80;45.90;;;;;;5115456;28;20438;-72
2021/10/05 10:53:39;;;;;;;4.23;1.57;;;23.90;45.60;;;;;;5115021;27;20799;-71
2021/10/05 10:56:06;;;;;;;2.30;1.40;;;24.00;44.40;;;;;;5115350;28;20427;-71
2021/10/05 10:58:40;;;;;;;3.40;2.33;;;23.60;44.90;;;;;;5114174;28;20512;-71
2021/10/05 11:01:07;;;;;;;3.03;1.37;;;23.40;45.80;;;;;;5114903;28;20428;-72
2021/10/05 11:03:33;;;;;;;2.33;1.30;;;23.70;45.00;;;;;;5115374;28;20435;-72
2021/10/05 11:06:00;;;;;;;4.70;1.60;;;24.00;44.70;;;;;;5114988;28;20520;-71
2021/10/05 11:08:27;;;;;;;3.70;1.80;;;24.10;44.30;;;;;;5114666;28;20461;-71
2021/10/05 11:11:02;;;;;;;2.83;1.20;;;23.90;44.60;;;;;;5115063;28;20852;-71
2021/10/05 11:13:29;;;;;;;3.13;1.70;;;24.10;44.70;;;;;;5114892;28;20429;-71
2021/10/05 11:15:56;;;;;;;3.33;2.20;;;24.00;44.50;;;;;;5114903;28;20443;-71
2021/10/05 11:18:26;;;;;;;3.57;1.60;;;23.70;44.90;;;;;;5114746;28;20459;-71
2021/10/05 11:20:56;;;;;;;4.00;1.23;;;23.90;45.10;;;;;;5114508;28;20903;-71
2021/10/05 11:23:25;;;;;;;3.90;1.60;;;24.00;44.60;;;;;;5114800;28;20470;-71
2021/10/05 11:25:53;;;;;;;3.10;1.70;;;24.00;44.10;;;;;;5114711;28;20438;-71
2021/10/05 11:28:24;;;;;;;3.23;1.40;;;23.70;44.60;;;;;;5114645;28;20467;-71
2021/10/05 11:30:56;;;;;;;4.57;1.77;;;23.50;45.30;;;;;;5114738;28;20423;-71
2021/10/05 11:33:26;;;;;;;1.87;1.13;;;23.00;45.80;;;;;;5114825;28;20427;-71
2021/10/05 11:35:53;;;;;;;12.80;2.27;;;22.60;47.20;;;;;;5114822;28;20438;-71
2021/10/05 11:38:21;;;;;;;2.17;1.97;;;22.40;48.10;;;;;;5114476;28;20489;-71
2021/10/05 11:40:57;;;;;;;1.73;1.10;;;22.20;48.70;;;;;;5114564;28;20450;-71
2021/10/05 11:43:34;;;;;;;2.70;1.07;;;21.80;49.20;;;;;;5114140;28;20946;-71
2021/10/05 11:46:09;;;;;;;4.23;1.27;;;21.50;50.00;;;;;;5114470;28;20427;-71
2021/10/05 11:48:41;;;;;;;5.20;1.53;;;21.20;50.60;;;;;;5114329;28;20868;-71
2021/10/05 11:51:08;;;;;;;0.87;0.87;;;20.90;51.20;;;;;;5113979;28;20450;-71
2021/10/05 11:53:35;;;;;;;3.70;1.17;;;20.70;51.50;;;;;;5114184;28;20446;-71
2021/10/05 11:56:07;;;;;;;7.73;1.57;;;20.40;51.80;;;;;;5114196;28;20817;-72
2021/10/05 11:58:49;;;;;;;2.53;1.47;;;20.30;52.10;;;;;;5113828;28;20964;-72
2021/10/05 12:01:18;;;;;;;2.97;1.53;;;20.20;52.20;;;;;;5113884;28;20463;-72
2021/10/05 12:03:46;;;;;;;2.60;1.00;;;20.10;52.70;;;;;;5114208;28;20431;-72
2021/10/05 12:06:25;;;;;;;3.67;1.57;;;20.10;52.70;;;;;;5113984;28;20451;-72
2021/10/05 12:08:52;;;;;;;3.30;1.27;;;20.20;53.00;;;;;;5113604;28;20818;-72
2021/10/05 12:11:19;;;;;;;4.27;1.40;;;20.30;52.60;;;;;;5113603;28;20469;-72
2021/10/05 12:13:47;;;;;;;1.97;1.00;;;20.40;52.80;;;;;;5114122;28;20446;-72
2021/10/05 12:16:15;;;;;;;5.63;1.10;;;20.50;52.30;;;;;;5113895;28;20450;-72
2021/10/05 12:18:42;;;;;;;2.07;0.90;;;20.60;52.70;;;;;;5113812;28;20972;-71
2021/10/05 12:21:12;;;;;;;4.47;1.07;;;20.70;52.50;;;;;;5113821;28;20449;-72
2021/10/05 12:23:50;;;;;;;1.83;1.10;;;20.80;52.40;;;;;;5113841;28;20442;-73
2021/10/05 12:26:17;;;;;;;2.27;1.23;;;20.80;51.70;;;;;;5113504;28;20442;-73
2021/10/05 12:28:58;;;;;;;1.00;0.90;;;21.40;51.20;;;;;;5113958;28;20481;-72
2021/10/05 12:31:27;;;;;;;1.87;1.03;;;21.90;49.10;;;;;;5113910;28;20431;-72
2021/10/05 12:33:58;;;;;;;2.30;1.00;;;22.10;48.50;;;;;;5113754;28;20443;-72
2021/10/05 12:36:26;;;;;;;2.70;0.90;;;22.10;48.90;;;;;;5113848;28;20433;-72
2021/10/05 12:38:54;;;;;;;3.70;1.50;;;22.00;48.60;;;;;;5113776;28;20459;-72
2021/10/05 12:41:21;;;;;;;7.60;1.37;;;22.00;49.40;;;;;;5113755;28;20451;-72
2021/10/05 12:43:48;;;;;;;1.53;1.10;;;22.10;49.40;;;;;;5113824;28;20447;-72
2021/10/05 12:46:19;;;;;;;2.10;0.90;;;22.60;48.20;;;;;;5113779;28;20624;-72
2021/10/05 12:48:47;;;;;;;4.10;1.10;;;23.50;47.10;;;;;;5113608;28;20471;-73
2021/10/05 12:51:16;;;;;;;4.13;0.90;;;23.70;45.20;;;;;;5113697;28;20426;-72